NCAR-RAP Real-Time Weather Data

Output produced by METARs form (12 August 2020  18:54 UTC)
found at http://weather.rap.ucar.edu/surface/
 
KJFK 121851Z 16007KT 10SM TS SCT037CB SCT130 BKN250 27/24 A3001 RMK AO2 LTG DSNT NE AND W TSB34E49B51 SLP163 OCNL LTGIC N-NE TS N-NE MOV E TCU DSNT W-NW T02720239 $
KJFK 121837Z 19011KT 10SM TS SCT037CB SCT130 BKN250 28/24 A3002 RMK AO2 LTG DSNT NE AND E TSB34 OCNL LTGIC N-NE TS N-NE MOV E TCU DSNT W-NW T02780239 $
KJFK 121803Z 16007KT 10SM VCTS SCT037CB SCT110 BKN250 29/24 A3002 RMK AO2 LTG DSNT NE AND E CB NE MOV E CB DSNT SW T02890244 $
KJFK 121751Z 18009KT 10SM SCT037CB SCT110 BKN250 29/24 A3001 RMK AO2 LTG DSNT NE SLP163 CB NE AND DSNT SW MOV E TCU DSNT W 60000 T02940244 10300 20250 56009 $
KJFK 121651Z 16008KT 10SM SCT033TCU SCT110 SCT230 29/25 A3002 RMK AO2 RAB01E10 TSB25E49 SLP165 CB DSNT SW MOV E TCU NE AND NW VCSH NW P0000 T02940250 $
KJFK 121625Z 18007KT 9SM TS FEW015 SCT028CB SCT110 BKN250 29/25 A3003 RMK AO2 RAB01E10 TSB25 OCNL LTGICCG NW TS NW MOV STNRY CB DSNT SW MOV E VCSH NW P0000 T02890250 $
KJFK 121551Z 18006KT 9SM FEW012 SCT025TCU SCT095 BKN250 28/25 A3003 RMK AO2 SLP169 TCU NW VCSH NW T02830250 $
KJFK 121451Z 18005KT 7SM FEW009 SCT025 BKN095 BKN250 27/25 A3004 RMK AO2 SLP171 T02720250 53008 $
KJFK 121417Z 17005KT 7SM SCT009 SCT022 SCT095 BKN250 27/24 A3003 RMK AO2 T02670244 $
KJFK 121351Z 18006KT 9SM OVC008 26/24 A3003 RMK AO2 SLP168 T02560239 $
KJFK 121251Z 20006KT 8SM BKN006 BKN095 BKN250 26/24 A3002 RMK AO2 SLP166 BKN006 V SCT T02560239
KJFK 121244Z 19007KT 8SM SCT006 BKN095 BKN250 25/24 A3002 RMK AO2 T02500239
KJFK 121151Z 18005KT 7SM FEW010 SCT095 SCT140 BKN250 26/24 A3001 RMK AO2 SLP163 60050 70050 T02610244 10261 20233 53008
KJFK 121051Z 20006KT 8SM FEW012 FEW045 SCT080 BKN140 BKN250 25/24 A3000 RMK AO2 TSE0953 SLP159 CB DSNT SE MOV SE T02500244
KJFK 120955Z 17005KT 8SM SCT012 SCT042 BKN080 BKN250 24/23 A3000 RMK AO2 TSE53 OCNL LTGIC DSNT SE CB DSNT SE MOV SE T02390233
KJFK 120951Z 16004KT 7SM TS SCT012 SCT042CB BKN090 BKN250 24/23 A3000 RMK AO2 RAB07E39 TSB07 SLP157 OCNL LTGIC E-SE TS E-SE MOV SE P0050 T02440233
KJFK 120937Z 17004KT 7SM -TSRA BKN012 BKN042CB OVC090 24/24 A3000 RMK AO2 RAB07 TSB07 OCNL LTGICCA OHD-SE TS OHD-SE MOV SE P0050 T02440239
KJFK 120913Z 25003KT 10SM +TSRA FEW013 SCT033 OVC065 24/24 A2999 RMK AO2 RAB07 TSB07 P0007 T02440239
KJFK 120851Z 19005KT 10SM FEW013 SCT033 OVC065 24/23 A2999 RMK AO2 LTG DSNT NE SLP155 T02440233 53003
KJFK 120751Z 20005KT 10SM SCT095 BKN210 24/23 A2998 RMK AO2 SLP152 T02390228
KJFK 120651Z 19005KT 10SM FEW005 SCT250 24/23 A2998 RMK AO2 SLP151 T02390228
KJFK 120551Z 19004KT 9SM FEW005 SCT250 23/23 A2998 RMK AO2 SLP152 T02330228 10250 20233 51005
KJFK 120451Z 19007KT 8SM FEW004 BKN250 23/23 A2997 RMK AO2 SLP149 T02330228 402830222
KJFK 120439Z 19007KT 7SM SCT004 BKN250 24/23 A2997 RMK AO2 T02390228
KJFK 120351Z 20010KT 1/4SM R04R/P6000FT BR OVC003 24/23 A2997 RMK AO2 SFC VIS 4 SLP149 T02390233
KJFK 120251Z 20013KT 1/4SM R04R/P6000FT BR OVC002 24/23 A2997 RMK AO2 SFC VIS 3 SLP147 T02390233 51010
KJFK 120151Z 19013KT 1SM R04R/P6000FT BR BKN002 24/23 A2996 RMK AO2 SFC VIS 5 SLP145 T02390233
KJFK 120103Z 18014G21KT 1SM R04R/P6000FT BR BKN002 24/23 A2995 RMK AO2 SFC VIS 4 VIS LWR E T02390233
KJFK 120051Z 18015KT 7SM SCT004 SCT250 24/23 A2995 RMK AO2 SLP141 SCT004 V BKN T02440233
KJFK 112351Z 18015G23KT 7SM FEW006 FEW150 SCT250 25/24 A2993 RMK AO2 SLP136 T02500239 10283 20250 56004
KJFK 112251Z 18015KT 10SM FEW006 FEW150 SCT250 26/23 A2994 RMK AO2 SLP137 T02560233
KJFK 112151Z 18016KT 10SM FEW006 FEW055 SCT160 SCT250 27/23 A2994 RMK AO2 SLP138 T02670233